Time;durP1;ratioP1;P1;durP2;ratioP2;P2;SDS_P1;SDS_P2;PMS_P1;PMS_P2;Temp;Humidity;BMP_temperature;BMP_pressure;BME280_temperature;BME280_humidity;BME280_pressure;Samples;Min_cycle;Max_cycle;Signal;HPM_P1;HPM_P2
2024/01/18 04:01:13;;;;;;;0.73;0.73;;;20.90;26.90;;;;;;5608092;23;45969;-86
2024/01/18 04:03:39;;;;;;;0.60;0.60;;;20.80;26.90;;;;;;4964527;28;45410;-85
2024/01/18 04:06:05;;;;;;;0.55;0.55;;;20.80;26.90;;;;;;4974227;28;45259;-85
2024/01/18 04:08:31;;;;;;;0.50;0.50;;;20.90;27.00;;;;;;4982930;28;45505;-85
2024/01/18 04:10:57;;;;;;;0.70;0.70;;;20.80;27.00;;;;;;4984123;28;47244;-84
2024/01/18 04:13:23;;;;;;;0.53;0.53;;;20.80;27.00;;;;;;4987997;28;45448;-83
2024/01/18 04:15:49;;;;;;;0.70;0.70;;;20.80;27.00;;;;;;4995031;28;45274;-85
2024/01/18 04:18:15;;;;;;;0.60;0.60;;;20.80;27.00;;;;;;4989500;28;45507;-84
2024/01/18 04:20:40;;;;;;;0.47;0.47;;;20.80;27.00;;;;;;4972185;28;47069;-84
2024/01/18 04:23:07;;;;;;;0.70;0.68;;;20.80;27.00;;;;;;5000462;28;46822;-85
2024/01/18 04:25:33;;;;;;;0.60;0.60;;;20.80;27.00;;;;;;5006069;28;45245;-84
2024/01/18 04:27:59;;;;;;;0.40;0.40;;;20.80;27.00;;;;;;5002038;28;45276;-85
2024/01/18 04:30:25;;;;;;;0.50;0.50;;;20.80;27.00;;;;;;5005137;28;46467;-84
2024/01/18 04:32:51;;;;;;;0.60;0.60;;;20.80;27.10;;;;;;4996524;28;44711;-85
2024/01/18 04:35:17;;;;;;;0.50;0.50;;;20.70;27.00;;;;;;5011267;28;45456;-85
2024/01/18 04:37:44;;;;;;;0.57;0.57;;;20.80;27.10;;;;;;5001167;28;45123;-84
2024/01/18 04:40:10;;;;;;;0.47;0.47;;;20.80;27.10;;;;;;5008277;28;45721;-84
2024/01/18 04:42:35;;;;;;;0.65;0.60;;;20.80;27.10;;;;;;4980789;28;45292;-85
2024/01/18 04:45:01;;;;;;;0.60;0.50;;;20.80;27.10;;;;;;4988199;28;45330;-85
2024/01/18 04:47:27;;;;;;;0.60;0.60;;;20.70;27.10;;;;;;5006070;28;45116;-83
2024/01/18 04:49:53;;;;;;;0.40;0.40;;;20.80;27.10;;;;;;5003528;28;46243;-84
2024/01/18 04:52:20;;;;;;;0.50;0.50;;;20.70;27.10;;;;;;4985825;28;45401;-84
2024/01/18 04:54:46;;;;;;;0.40;0.40;;;20.70;27.10;;;;;;4977870;28;45223;-84
2024/01/18 04:57:12;;;;;;;0.40;0.40;;;20.70;27.10;;;;;;4997190;28;45782;-83
2024/01/18 04:59:38;;;;;;;0.50;0.50;;;20.70;27.10;;;;;;5017935;28;45800;-84
2024/01/18 05:02:03;;;;;;;0.43;0.40;;;20.70;27.10;;;;;;4974689;28;45307;-84
2024/01/18 05:04:29;;;;;;;0.60;0.50;;;20.70;27.20;;;;;;4971994;28;46415;-85
2024/01/18 05:06:56;;;;;;;0.33;0.33;;;20.70;27.20;;;;;;4975747;28;45264;-84
2024/01/18 05:09:22;;;;;;;0.50;0.50;;;20.70;27.20;;;;;;4982090;28;46155;-84
2024/01/18 05:11:47;;;;;;;0.50;0.50;;;20.70;27.20;;;;;;4980638;28;45458;-84
2024/01/18 05:14:13;;;;;;;0.50;0.50;;;20.70;27.20;;;;;;4998614;28;44880;-84
2024/01/18 05:16:40;;;;;;;0.50;0.50;;;20.70;27.20;;;;;;4991860;28;45516;-83
2024/01/18 05:19:08;;;;;;;0.40;0.40;;;20.60;27.20;;;;;;4987213;28;47338;-87
2024/01/18 05:21:34;;;;;;;0.60;0.40;;;20.70;27.20;;;;;;4979684;28;45419;-84
2024/01/18 05:24:00;;;;;;;0.60;0.60;;;20.70;27.20;;;;;;4989488;28;45264;-84
2024/01/18 05:26:26;;;;;;;0.47;0.40;;;20.70;27.20;;;;;;5007148;28;45474;-85
2024/01/18 05:28:52;;;;;;;0.45;0.40;;;20.60;27.20;;;;;;4994266;28;46031;-85
2024/01/18 05:31:18;;;;;;;0.43;0.43;;;20.60;27.30;;;;;;4995938;28;45165;-84
2024/01/18 05:33:44;;;;;;;0.57;0.57;;;20.60;27.30;;;;;;4981560;28;45531;-85
2024/01/18 05:36:10;;;;;;;0.57;0.57;;;20.70;27.30;;;;;;4996621;28;45548;-85
2024/01/18 05:38:36;;;;;;;0.60;0.50;;;20.60;27.30;;;;;;4983796;28;48006;-85
2024/01/18 05:41:03;;;;;;;0.68;0.63;;;20.60;27.30;;;;;;4980486;28;63562;-84
2024/01/18 05:43:29;;;;;;;0.60;0.60;;;20.60;27.40;;;;;;4975454;28;45274;-84
2024/01/18 05:45:55;;;;;;;0.60;0.60;;;20.60;27.30;;;;;;4976696;28;45221;-85
2024/01/18 05:48:21;;;;;;;0.70;0.55;;;20.60;27.30;;;;;;5010955;28;46363;-84
2024/01/18 05:50:47;;;;;;;0.60;0.50;;;20.60;27.40;;;;;;4966627;28;45281;-83
2024/01/18 05:53:12;;;;;;;0.50;0.50;;;20.60;27.40;;;;;;5002130;28;45444;-85
2024/01/18 05:55:38;;;;;;;0.50;0.50;;;20.60;27.40;;;;;;4970415;28;45367;-84
2024/01/18 05:58:04;;;;;;;0.88;0.65;;;20.60;27.40;;;;;;4984867;28;46377;-84
2024/01/18 06:00:29;;;;;;;0.60;0.60;;;20.60;27.40;;;;;;4985722;28;45294;-84
2024/01/18 06:02:56;;;;;;;0.88;0.60;;;20.60;27.40;;;;;;4988060;28;46314;-84
2024/01/18 06:05:22;;;;;;;0.60;0.60;;;20.50;27.40;;;;;;5012518;28;45837;-83
2024/01/18 06:07:49;;;;;;;0.65;0.65;;;20.50;27.40;;;;;;4985570;28;45889;-84
2024/01/18 06:10:15;;;;;;;0.80;0.70;;;20.60;27.40;;;;;;4987595;28;45748;-85
2024/01/18 06:12:41;;;;;;;0.60;0.60;;;20.60;27.50;;;;;;4976391;28;45737;-84
2024/01/18 06:15:07;;;;;;;0.60;0.60;;;20.50;27.50;;;;;;5008829;28;45251;-84
2024/01/18 06:17:33;;;;;;;0.63;0.60;;;20.60;27.50;;;;;;4992120;28;45408;-83
2024/01/18 06:20:01;;;;;;;0.70;0.67;;;20.50;27.50;;;;;;5007362;28;45568;-84
2024/01/18 06:22:27;;;;;;;0.65;0.57;;;20.50;27.50;;;;;;4996873;28;44921;-85
2024/01/18 06:24:54;;;;;;;0.70;0.70;;;20.50;27.50;;;;;;5015161;28;45359;-85
2024/01/18 06:27:22;;;;;;;0.70;0.70;;;20.50;27.60;;;;;;4965407;28;46025;-84
2024/01/18 06:29:48;;;;;;;0.60;0.60;;;20.50;27.50;;;;;;4990977;28;45041;-84
2024/01/18 06:32:14;;;;;;;0.50;0.50;;;20.50;27.50;;;;;;4978527;28;45327;-82
2024/01/18 06:34:40;;;;;;;0.68;0.60;;;20.50;27.60;;;;;;4981206;28;45496;-84
2024/01/18 06:37:05;;;;;;;0.60;0.60;;;20.50;27.50;;;;;;5006889;28;45725;-84
2024/01/18 06:39:31;;;;;;;0.60;0.60;;;20.50;27.60;;;;;;4986144;28;45472;-83
2024/01/18 06:42:07;;;;;;;0.80;0.60;;;20.50;27.60;;;;;;4969596;28;45498;-84
2024/01/18 06:44:33;;;;;;;0.57;0.50;;;20.50;27.60;;;;;;5005496;28;45524;-84
2024/01/18 06:47:00;;;;;;;0.60;0.60;;;20.50;27.60;;;;;;4983603;28;46260;-85
2024/01/18 06:49:26;;;;;;;0.70;0.70;;;20.40;27.60;;;;;;4977991;28;45250;-84
2024/01/18 06:51:53;;;;;;;0.70;0.70;;;20.50;27.60;;;;;;4995445;28;45491;-84
2024/01/18 06:54:21;;;;;;;0.70;0.70;;;20.40;27.60;;;;;;5003413;28;45600;-84
2024/01/18 06:56:47;;;;;;;0.70;0.70;;;20.40;27.60;;;;;;5000423;28;46229;-84
2024/01/18 06:59:14;;;;;;;0.70;0.60;;;20.40;27.60;;;;;;5019348;28;45185;-84
2024/01/18 07:01:40;;;;;;;1.80;0.60;;;20.50;27.70;;;;;;4968233;28;45456;-84
2024/01/18 07:04:06;;;;;;;0.77;0.70;;;20.40;27.60;;;;;;4966783;28;45602;-84
2024/01/18 07:06:31;;;;;;;1.00;0.77;;;20.40;27.60;;;;;;4944095;28;46084;-83
2024/01/18 07:08:57;;;;;;;0.90;0.70;;;20.40;27.70;;;;;;4967139;28;45563;-85
2024/01/18 07:11:23;;;;;;;0.70;0.70;;;20.40;27.70;;;;;;4953273;28;45236;-85
2024/01/18 07:13:49;;;;;;;0.80;0.80;;;20.40;27.70;;;;;;4964076;28;44911;-84
2024/01/18 07:16:15;;;;;;;0.83;0.70;;;20.40;27.70;;;;;;4940355;28;46458;-84
2024/01/18 07:18:41;;;;;;;0.70;0.70;;;20.40;27.70;;;;;;4978720;28;45634;-84
2024/01/18 07:21:07;;;;;;;1.05;0.90;;;20.40;27.70;;;;;;4971409;28;44990;-84
2024/01/18 07:23:32;;;;;;;0.80;0.80;;;20.40;27.70;;;;;;4951031;28;46030;-83
2024/01/18 07:25:58;;;;;;;0.90;0.90;;;20.40;27.80;;;;;;4956614;28;45287;-84
2024/01/18 07:28:24;;;;;;;1.15;1.05;;;20.40;27.80;;;;;;4955380;28;45245;-84
2024/01/18 07:30:50;;;;;;;1.13;1.00;;;20.30;27.80;;;;;;4963349;28;44739;-88
2024/01/18 07:33:16;;;;;;;1.30;1.20;;;20.30;27.90;;;;;;4981022;28;45674;-83
2024/01/18 07:35:42;;;;;;;1.25;1.10;;;20.30;27.90;;;;;;4952541;28;46374;-84
2024/01/18 07:38:08;;;;;;;1.15;1.05;;;20.30;27.90;;;;;;4949207;28;45387;-84
2024/01/18 07:40:33;;;;;;;1.63;1.20;;;20.30;28.00;;;;;;4952611;28;45199;-84
2024/01/18 07:43:00;;;;;;;0.90;0.90;;;20.20;28.00;;;;;;4969331;28;44944;-85
2024/01/18 07:45:25;;;;;;;1.20;1.10;;;20.30;28.00;;;;;;4974181;28;45625;-85
2024/01/18 07:47:53;;;;;;;1.10;1.00;;;20.30;28.00;;;;;;4942804;28;45256;-85
2024/01/18 07:50:18;;;;;;;1.10;1.00;;;20.30;28.00;;;;;;4981200;28;45111;-84
2024/01/18 07:52:44;;;;;;;1.20;1.10;;;20.30;28.10;;;;;;4949332;28;45502;-84
2024/01/18 07:55:10;;;;;;;0.82;0.82;;;20.30;28.10;;;;;;4967101;28;45377;-84
2024/01/18 07:57:36;;;;;;;1.20;1.10;;;20.30;28.20;;;;;;4955440;28;45092;-83
2024/01/18 08:00:03;;;;;;;0.88;0.88;;;20.30;28.20;;;;;;4957973;28;45275;-84
2024/01/18 08:02:30;;;;;;;1.30;1.00;;;20.30;28.20;;;;;;4971732;28;46376;-84
2024/01/18 08:04:57;;;;;;;1.25;0.90;;;20.30;28.20;;;;;;5002715;28;45426;-84
2024/01/18 08:07:22;;;;;;;1.17;0.90;;;20.30;28.20;;;;;;5014555;28;45365;-84
2024/01/18 08:09:49;;;;;;;0.80;0.80;;;20.30;28.30;;;;;;4996707;28;44774;-84
2024/01/18 08:12:15;;;;;;;0.85;0.82;;;20.40;28.30;;;;;;4998764;28;45162;-84
2024/01/18 08:14:41;;;;;;;0.75;0.75;;;20.40;28.30;;;;;;5017993;28;46391;-84
2024/01/18 08:17:07;;;;;;;1.00;0.88;;;20.40;28.30;;;;;;4968597;28;45214;-85
2024/01/18 08:19:34;;;;;;;0.73;0.73;;;20.40;28.30;;;;;;4993404;28;45425;-84
2024/01/18 08:22:00;;;;;;;1.80;0.80;;;20.30;28.30;;;;;;4998355;28;45444;-84
2024/01/18 08:24:26;;;;;;;0.80;0.70;;;20.40;28.40;;;;;;5017344;28;45698;-84
2024/01/18 08:26:52;;;;;;;1.05;0.70;;;20.40;28.30;;;;;;5002065;28;45481;-84
2024/01/18 08:29:18;;;;;;;0.60;0.60;;;20.40;28.40;;;;;;5007583;28;45782;-85
2024/01/18 08:31:43;;;;;;;0.75;0.70;;;20.50;28.40;;;;;;4976179;28;45322;-84
2024/01/18 08:34:10;;;;;;;0.73;0.68;;;20.40;28.40;;;;;;4989931;28;46504;-85
2024/01/18 08:36:36;;;;;;;0.57;0.57;;;20.50;28.40;;;;;;5013074;28;45383;-84
2024/01/18 08:39:03;;;;;;;1.80;0.60;;;20.50;28.40;;;;;;5006485;28;45233;-84
2024/01/18 08:41:28;;;;;;;1.13;0.70;;;20.50;28.40;;;;;;5010780;28;45066;-84
2024/01/18 08:43:54;;;;;;;0.60;0.60;;;20.50;28.40;;;;;;4980855;28;47188;-85
2024/01/18 08:46:20;;;;;;;0.80;0.80;;;20.60;28.50;;;;;;4995399;28;45427;-85
2024/01/18 08:48:46;;;;;;;1.08;0.70;;;20.60;28.40;;;;;;4999459;28;45517;-84
2024/01/18 08:51:14;;;;;;;0.82;0.80;;;20.60;28.40;;;;;;4971535;28;45121;-84
2024/01/18 08:53:41;;;;;;;1.08;0.90;;;20.60;28.40;;;;;;5015716;28;45528;-85
2024/01/18 08:56:07;;;;;;;1.50;0.90;;;20.60;28.50;;;;;;5009026;28;45337;-84
2024/01/18 08:58:33;;;;;;;2.33;0.98;;;20.70;28.40;;;;;;5021899;28;44741;-85
2024/01/18 09:01:00;;;;;;;1.02;0.90;;;20.60;28.40;;;;;;4993286;28;44994;-85
2024/01/18 09:03:26;;;;;;;1.30;0.90;;;20.70;28.40;;;;;;4971077;28;46482;-84
2024/01/18 09:05:52;;;;;;;1.40;1.00;;;20.70;28.40;;;;;;4946529;28;45514;-85
2024/01/18 09:08:18;;;;;;;1.50;1.10;;;20.70;28.40;;;;;;4952346;28;45421;-84
2024/01/18 09:10:45;;;;;;;1.00;0.90;;;20.80;28.40;;;;;;4959599;28;45346;-84
2024/01/18 09:13:10;;;;;;;0.90;0.80;;;20.80;28.40;;;;;;4963937;28;45783;-84
2024/01/18 09:15:36;;;;;;;1.33;0.90;;;20.80;28.40;;;;;;4964544;28;45395;-84
2024/01/18 09:18:02;;;;;;;0.70;0.70;;;20.80;28.40;;;;;;4962250;28;45416;-84
2024/01/18 09:20:28;;;;;;;0.97;0.80;;;20.90;28.40;;;;;;4949800;28;45390;-84
2024/01/18 09:22:54;;;;;;;2.00;0.90;;;20.90;28.40;;;;;;4971121;28;46487;-85
2024/01/18 09:25:20;;;;;;;0.98;0.88;;;20.90;28.40;;;;;;4947418;28;45294;-84
2024/01/18 09:27:46;;;;;;;0.98;0.88;;;20.90;28.40;;;;;;4957096;28;45312;-84
2024/01/18 09:30:12;;;;;;;0.93;0.70;;;20.90;28.40;;;;;;4959729;28;45333;-84
2024/01/18 09:32:39;;;;;;;1.07;0.97;;;21.00;28.40;;;;;;4966989;28;46486;-84
2024/01/18 09:35:05;;;;;;;1.27;0.80;;;21.00;28.40;;;;;;4974327;28;45196;-83
2024/01/18 09:37:31;;;;;;;0.75;0.73;;;21.00;28.30;;;;;;4964482;28;45535;-84
2024/01/18 09:39:57;;;;;;;1.13;0.90;;;21.00;28.30;;;;;;4965831;28;46161;-85
2024/01/18 09:42:26;;;;;;;0.82;0.82;;;21.10;28.30;;;;;;4939362;28;45659;-84
2024/01/18 09:44:52;;;;;;;0.97;0.87;;;21.10;28.40;;;;;;4948856;28;45418;-85
2024/01/18 09:47:18;;;;;;;0.77;0.77;;;21.10;28.30;;;;;;4958994;28;45810;-84
2024/01/18 09:49:45;;;;;;;0.80;0.80;;;21.20;28.40;;;;;;4962562;28;45209;-84
2024/01/18 09:52:12;;;;;;;0.82;0.80;;;21.20;28.40;;;;;;4974672;28;45850;-85
2024/01/18 09:54:39;;;;;;;0.70;0.70;;;21.20;28.40;;;;;;4964758;28;45901;-85
2024/01/18 09:57:06;;;;;;;0.80;0.80;;;21.20;28.40;;;;;;4965084;28;45711;-84
2024/01/18 09:59:32;;;;;;;0.80;0.70;;;21.30;28.40;;;;;;4966997;28;45560;-84
2024/01/18 10:01:57;;;;;;;0.70;0.60;;;21.20;28.30;;;;;;4978804;28;45800;-85
2024/01/18 10:04:27;;;;;;;1.38;0.80;;;21.30;28.30;;;;;;4996882;28;45090;-84
2024/01/18 10:06:53;;;;;;;0.95;0.60;;;21.30;28.30;;;;;;4998077;28;44874;-85
2024/01/18 10:09:19;;;;;;;0.80;0.80;;;21.40;28.30;;;;;;4999654;28;45299;-84
2024/01/18 10:11:46;;;;;;;0.80;0.75;;;21.40;28.30;;;;;;4993032;28;46153;-84
2024/01/18 10:14:12;;;;;;;0.70;0.70;;;21.40;28.30;;;;;;4983913;28;45548;-84
2024/01/18 10:16:38;;;;;;;1.00;0.90;;;21.40;28.20;;;;;;4979166;28;45496;-84
2024/01/18 10:19:14;;;;;;;1.50;1.10;;;21.40;28.20;;;;;;4993800;28;45841;-85
2024/01/18 10:21:40;;;;;;;1.33;0.93;;;21.40;28.20;;;;;;4974599;28;46442;-85
2024/01/18 10:24:08;;;;;;;1.90;1.35;;;21.50;28.20;;;;;;4993898;28;45343;-84
2024/01/18 10:26:34;;;;;;;1.90;1.30;;;21.50;28.20;;;;;;4979855;28;46611;-85
2024/01/18 10:29:01;;;;;;;1.90;1.50;;;21.50;28.20;;;;;;4980758;28;44967;-85
2024/01/18 10:31:26;;;;;;;1.55;1.42;;;21.50;28.10;;;;;;4995288;28;46097;-85
2024/01/18 10:33:52;;;;;;;1.98;1.42;;;21.60;28.20;;;;;;4993209;28;45065;-85
2024/01/18 10:36:19;;;;;;;2.57;1.53;;;21.60;28.10;;;;;;4989500;28;45087;-85
2024/01/18 10:38:44;;;;;;;2.75;1.77;;;21.60;28.10;;;;;;5009754;28;45329;-85
2024/01/18 10:41:10;;;;;;;1.67;1.47;;;21.60;28.00;;;;;;4983498;28;47221;-85
2024/01/18 10:43:36;;;;;;;2.05;1.40;;;21.70;28.10;;;;;;5010028;28;45298;-85
2024/01/18 10:46:02;;;;;;;2.60;1.88;;;21.70;28.00;;;;;;4987059;28;45081;-83
2024/01/18 10:48:29;;;;;;;1.90;1.70;;;21.70;27.90;;;;;;4991159;28;45408;-84
2024/01/18 10:50:55;;;;;;;2.80;2.10;;;21.80;27.90;;;;;;4986466;28;46387;-84
2024/01/18 10:53:25;;;;;;;2.88;2.15;;;21.80;27.90;;;;;;5011189;28;45194;-84
2024/01/18 10:55:57;;;;;;;2.78;2.25;;;21.80;27.90;;;;;;4997773;28;46140;-86
2024/01/18 10:58:23;;;;;;;2.45;2.03;;;21.80;27.80;;;;;;5008881;28;45477;-84
2024/01/18 11:00:49;;;;;;;2.60;2.13;;;21.90;27.80;;;;;;4985436;28;46323;-84
2024/01/18 11:03:15;;;;;;;3.03;2.20;;;21.90;27.80;;;;;;4949885;28;45597;-85
2024/01/18 11:05:45;;;;;;;2.17;1.97;;;22.00;27.80;;;;;;4885972;28;46518;-85
2024/01/18 11:08:29;;;;;;;2.20;1.98;;;21.90;27.70;;;;;;4955247;28;45351;-85
2024/01/18 11:10:55;;;;;;;2.67;1.90;;;21.90;27.70;;;;;;4976697;28;45457;-85
2024/01/18 11:13:21;;;;;;;2.03;1.77;;;22.00;27.70;;;;;;4952562;28;45296;-86
2024/01/18 11:15:47;;;;;;;2.22;1.80;;;22.00;27.70;;;;;;4960176;28;45250;-85
2024/01/18 11:18:13;;;;;;;1.50;1.40;;;22.00;27.60;;;;;;4945044;28;45403;-85
2024/01/18 11:20:57;;;;;;;2.00;1.80;;;22.00;27.60;;;;;;4933197;28;46267;-84
2024/01/18 11:23:27;;;;;;;2.13;1.60;;;22.10;27.60;;;;;;4984489;28;45366;-85
2024/01/18 11:25:53;;;;;;;1.60;1.50;;;22.00;27.50;;;;;;4944156;28;45725;-85
2024/01/18 11:28:24;;;;;;;1.60;1.50;;;22.10;27.50;;;;;;4970093;28;45292;-85
2024/01/18 11:30:49;;;;;;;1.63;1.48;;;22.10;27.50;;;;;;4974539;28;46001;-84
2024/01/18 11:33:16;;;;;;;1.27;1.17;;;22.10;27.50;;;;;;4961494;28;45258;-85
2024/01/18 11:35:42;;;;;;;1.17;1.08;;;22.10;27.40;;;;;;4978934;28;45675;-85
2024/01/18 11:38:20;;;;;;;1.07;1.00;;;22.10;27.40;;;;;;4948653;28;45511;-85
2024/01/18 11:40:49;;;;;;;1.60;1.20;;;22.10;27.40;;;;;;4966097;28;46284;-85
2024/01/18 11:43:15;;;;;;;1.23;1.08;;;22.10;27.40;;;;;;4964739;28;45686;-85
2024/01/18 11:45:44;;;;;;;1.55;1.05;;;22.10;27.30;;;;;;4940888;28;45127;-84
2024/01/18 11:48:11;;;;;;;1.33;1.17;;;22.10;27.30;;;;;;4966282;28;45136;-85
2024/01/18 11:50:37;;;;;;;0.80;0.80;;;22.20;27.30;;;;;;4941514;28;46444;-86
2024/01/18 11:53:04;;;;;;;1.30;1.10;;;22.20;27.30;;;;;;4964817;28;45894;-85
2024/01/18 11:55:33;;;;;;;1.70;0.90;;;22.20;27.30;;;;;;4950144;28;45390;-85
2024/01/18 11:58:01;;;;;;;1.25;1.10;;;22.20;27.20;;;;;;4970462;28;45176;-84
2024/01/18 12:00:28;;;;;;;0.85;0.70;;;22.20;27.20;;;;;;4964467;28;46376;-84
2024/01/18 12:02:55;;;;;;;1.13;1.02;;;22.30;27.30;;;;;;4985859;28;45643;-86
2024/01/18 12:05:21;;;;;;;0.82;0.80;;;22.20;27.70;;;;;;4984719;28;45276;-85
2024/01/18 12:07:47;;;;;;;1.10;1.00;;;22.20;27.10;;;;;;4991762;28;44786;-85
2024/01/18 12:10:14;;;;;;;1.15;1.05;;;22.30;27.20;;;;;;5009849;28;46189;-84
2024/01/18 12:12:41;;;;;;;1.40;0.90;;;22.20;27.10;;;;;;4987311;28;44861;-85
2024/01/18 12:15:08;;;;;;;1.20;1.10;;;22.20;27.10;;;;;;5001786;28;45181;-85
2024/01/18 12:17:34;;;;;;;1.00;0.90;;;22.20;27.10;;;;;;4983961;28;44782;-85
2024/01/18 12:19:59;;;;;;;1.20;1.10;;;22.20;27.10;;;;;;5003400;28;45546;-85
2024/01/18 12:22:26;;;;;;;1.17;1.07;;;22.30;27.10;;;;;;4990376;28;45503;-85
2024/01/18 12:24:55;;;;;;;1.27;1.17;;;22.30;27.10;;;;;;5009619;28;44926;-86
2024/01/18 12:27:20;;;;;;;1.20;1.10;;;22.30;27.00;;;;;;4993654;28;45299;-85
2024/01/18 12:29:46;;;;;;;1.30;1.13;;;22.20;27.00;;;;;;5004717;28;46125;-86
2024/01/18 12:32:15;;;;;;;1.17;1.08;;;22.30;27.00;;;;;;4979993;28;45287;-85
2024/01/18 12:34:41;;;;;;;1.02;0.93;;;22.30;27.00;;;;;;4999843;28;45380;-85
2024/01/18 12:37:07;;;;;;;1.27;1.17;;;22.30;27.00;;;;;;5000099;28;46081;-86
2024/01/18 12:39:36;;;;;;;1.00;1.00;;;22.30;27.00;;;;;;5017244;28;45384;-86
2024/01/18 12:42:02;;;;;;;1.17;1.05;;;22.30;26.90;;;;;;5017330;28;45668;-85
2024/01/18 12:44:29;;;;;;;1.20;1.10;;;22.30;26.90;;;;;;4991186;28;45430;-84
2024/01/18 12:46:55;;;;;;;1.00;0.90;;;22.30;26.90;;;;;;4979199;28;45610;-85
2024/01/18 12:49:23;;;;;;;1.20;1.00;;;22.30;27.00;;;;;;4984510;28;47010;-85
2024/01/18 12:51:54;;;;;;;1.07;1.00;;;22.30;26.90;;;;;;4989713;28;45329;-84
2024/01/18 12:54:21;;;;;;;1.10;1.00;;;22.30;26.80;;;;;;5000921;28;45943;-85
2024/01/18 12:56:57;;;;;;;1.08;0.98;;;22.30;26.80;;;;;;4996240;28;45217;-85
2024/01/18 12:59:25;;;;;;;1.20;1.10;;;22.30;26.80;;;;;;4988839;28;46284;-85
2024/01/18 13:01:54;;;;;;;1.50;1.10;;;22.30;26.80;;;;;;4977784;28;45366;-84
2024/01/18 13:04:27;;;;;;;0.80;0.80;;;22.30;26.80;;;;;;4997125;28;46148;-84
2024/01/18 13:06:54;;;;;;;1.10;1.00;;;22.30;26.80;;;;;;5002815;28;45046;-84
2024/01/18 13:09:27;;;;;;;1.97;1.20;;;22.30;26.80;;;;;;5005602;28;46532;-84
2024/01/18 13:11:54;;;;;;;1.13;1.02;;;22.30;26.70;;;;;;4983025;28;45307;-84
2024/01/18 13:14:20;;;;;;;1.10;1.00;;;22.30;26.70;;;;;;4978720;28;45508;-84
2024/01/18 13:16:46;;;;;;;1.08;0.98;;;22.30;26.70;;;;;;4980483;28;45101;-85
2024/01/18 13:19:35;;;;;;;1.27;1.13;;;22.30;26.70;;;;;;4991598;28;45397;-85
2024/01/18 13:22:01;;;;;;;1.20;1.10;;;22.30;26.60;;;;;;4983352;28;45535;-85
2024/01/18 13:24:29;;;;;;;1.13;1.03;;;22.30;26.60;;;;;;4986721;28;45827;-84
2024/01/18 13:26:54;;;;;;;1.80;1.00;;;22.30;26.60;;;;;;4999705;28;45386;-84
2024/01/18 13:29:20;;;;;;;1.27;1.10;;;22.30;26.60;;;;;;4970314;28;46206;-85
2024/01/18 13:31:47;;;;;;;1.17;1.05;;;22.30;26.60;;;;;;4964682;28;45684;-85
2024/01/18 13:34:13;;;;;;;1.40;1.20;;;22.30;26.60;;;;;;4977271;28;45443;-83
2024/01/18 13:36:39;;;;;;;1.85;1.42;;;22.30;26.60;;;;;;5010272;28;45406;-85
2024/01/18 13:39:07;;;;;;;1.30;1.17;;;22.30;26.60;;;;;;5015823;28;46438;-85
2024/01/18 13:41:33;;;;;;;1.30;1.20;;;22.30;26.60;;;;;;4984056;28;45717;-84
2024/01/18 13:43:59;;;;;;;1.20;1.10;;;22.20;26.50;;;;;;4986989;28;46242;-84
2024/01/18 13:46:25;;;;;;;1.45;1.35;;;22.30;26.50;;;;;;4981459;28;45846;-86
2024/01/18 13:48:50;;;;;;;1.67;1.30;;;22.30;26.50;;;;;;5003822;28;47334;-85
2024/01/18 13:51:16;;;;;;;1.40;1.30;;;22.40;26.50;;;;;;5000626;28;45619;-85
2024/01/18 13:53:43;;;;;;;1.40;1.30;;;22.30;26.50;;;;;;5004703;28;45001;-85
2024/01/18 13:56:09;;;;;;;1.70;1.25;;;22.20;26.50;;;;;;5011145;28;45748;-85
2024/01/18 13:58:35;;;;;;;1.80;1.30;;;22.30;26.40;;;;;;4988693;28;46083;-85
2024/01/18 14:01:01;;;;;;;1.40;1.30;;;22.30;26.40;;;;;;5001882;28;46409;-84
2024/01/18 14:03:27;;;;;;;1.25;1.10;;;22.20;26.40;;;;;;4978383;28;44986;-85
2024/01/18 14:05:54;;;;;;;1.13;1.03;;;22.30;26.40;;;;;;4962536;28;44758;-84
2024/01/18 14:08:20;;;;;;;1.10;1.08;;;22.20;26.40;;;;;;4977250;28;46645;-86
2024/01/18 14:10:46;;;;;;;1.40;1.30;;;22.30;26.40;;;;;;4964023;28;45529;-85
2024/01/18 14:13:11;;;;;;;1.40;1.30;;;22.30;26.40;;;;;;4943896;28;45325;-87
2024/01/18 14:15:38;;;;;;;1.50;1.30;;;22.30;26.40;;;;;;4961467;28;45200;-84
2024/01/18 14:18:04;;;;;;;1.40;1.30;;;22.30;26.30;;;;;;4977326;28;45536;-84
2024/01/18 14:20:30;;;;;;;1.73;1.40;;;22.30;26.30;;;;;;4957377;28;45964;-84
2024/01/18 14:22:56;;;;;;;1.50;1.20;;;22.30;26.30;;;;;;4975698;28;44881;-85
2024/01/18 14:25:22;;;;;;;1.40;1.25;;;22.30;26.30;;;;;;4947769;28;44997;-86
2024/01/18 14:27:47;;;;;;;2.00;1.30;;;22.30;26.30;;;;;;4943863;28;46192;-85
2024/01/18 14:30:13;;;;;;;1.63;1.43;;;22.20;26.30;;;;;;4942398;28;45621;-83
2024/01/18 14:32:39;;;;;;;1.40;1.20;;;22.30;26.30;;;;;;4935104;28;45509;-84
2024/01/18 14:35:06;;;;;;;1.48;1.17;;;22.20;26.20;;;;;;4964680;28;45018;-84
2024/01/18 14:37:33;;;;;;;1.30;1.08;;;22.20;26.20;;;;;;4963794;28;45568;-85
2024/01/18 14:39:59;;;;;;;1.23;1.13;;;22.20;26.20;;;;;;4983242;28;45321;-85
2024/01/18 14:42:25;;;;;;;1.40;1.30;;;22.20;26.20;;;;;;4946735;28;45608;-85
2024/01/18 14:44:50;;;;;;;1.52;1.27;;;22.30;26.20;;;;;;4961480;28;45284;-84
2024/01/18 14:47:23;;;;;;;1.73;1.30;;;22.30;26.20;;;;;;4953501;28;46060;-84
2024/01/18 14:49:53;;;;;;;1.50;1.15;;;22.20;26.10;;;;;;4980665;28;45155;-85
2024/01/18 14:52:22;;;;;;;1.77;1.20;;;22.20;26.10;;;;;;4973743;28;45306;-84
2024/01/18 14:54:52;;;;;;;1.20;1.10;;;22.20;26.10;;;;;;4951421;28;45448;-84
2024/01/18 14:57:18;;;;;;;1.42;1.30;;;22.20;26.10;;;;;;4970588;28;46120;-84
2024/01/18 14:59:44;;;;;;;1.70;1.27;;;22.20;26.10;;;;;;4939498;28;45461;-84
2024/01/18 15:02:13;;;;;;;1.08;0.90;;;22.20;26.10;;;;;;4967246;28;45433;-85
2024/01/18 15:04:41;;;;;;;1.08;0.98;;;22.20;26.10;;;;;;4984196;28;45435;-83
2024/01/18 15:07:07;;;;;;;1.30;1.10;;;22.30;26.10;;;;;;4990426;28;45962;-84
2024/01/18 15:09:36;;;;;;;1.30;0.98;;;22.20;26.10;;;;;;4994907;28;45165;-84
2024/01/18 15:12:03;;;;;;;1.20;1.10;;;22.20;26.10;;;;;;4987316;28;45814;-83
2024/01/18 15:14:29;;;;;;;1.70;1.10;;;22.20;26.10;;;;;;5006315;28;45255;-84
2024/01/18 15:17:13;;;;;;;1.20;1.00;;;22.20;26.10;;;;;;5017158;28;45439;-84
2024/01/18 15:19:39;;;;;;;1.63;1.00;;;22.10;26.00;;;;;;4988960;28;45509;-84
2024/01/18 15:22:04;;;;;;;1.17;1.07;;;22.10;26.00;;;;;;4972610;28;45297;-83
2024/01/18 15:24:30;;;;;;;1.10;1.00;;;22.10;26.10;;;;;;4999480;28;45272;-84
2024/01/18 15:26:56;;;;;;;1.30;0.95;;;22.20;26.00;;;;;;4989130;28;46962;-84
2024/01/18 15:29:23;;;;;;;1.10;0.95;;;22.20;26.10;;;;;;4979870;28;46207;-82
2024/01/18 15:31:49;;;;;;;1.30;1.00;;;22.20;26.10;;;;;;4990349;28;45503;-84
2024/01/18 15:34:15;;;;;;;1.10;1.00;;;22.10;26.00;;;;;;4990056;28;45549;-84
2024/01/18 15:36:41;;;;;;;1.20;1.10;;;22.20;26.10;;;;;;4999611;28;46710;-83
2024/01/18 15:39:07;;;;;;;1.63;1.20;;;22.10;26.00;;;;;;5007411;28;44699;-83
2024/01/18 15:41:34;;;;;;;1.20;1.00;;;22.10;26.00;;;;;;4991563;28;45699;-84
2024/01/18 15:44:00;;;;;;;1.23;0.98;;;22.10;26.00;;;;;;5022753;28;45641;-83
2024/01/18 15:46:26;;;;;;;1.03;0.90;;;22.10;26.00;;;;;;4983337;28;46134;-83
2024/01/18 15:48:54;;;;;;;1.20;1.10;;;22.10;26.00;;;;;;5024037;28;45254;-84
2024/01/18 15:51:22;;;;;;;1.80;1.20;;;22.10;26.00;;;;;;5013069;28;45351;-84
2024/01/18 15:53:49;;;;;;;1.20;1.00;;;22.10;26.50;;;;;;5020241;28;45234;-84
2024/01/18 15:56:15;;;;;;;1.30;1.10;;;22.00;26.00;;;;;;4998142;28;46353;-84
2024/01/18 15:58:41;;;;;;;1.13;0.98;;;22.00;26.00;;;;;;5008360;28;45258;-83
2024/01/18 16:01:07;;;;;;;1.13;1.02;;;22.00;26.00;;;;;;4969992;28;45598;-83
2024/01/18 16:03:33;;;;;;;1.10;0.90;;;22.00;26.00;;;;;;5020365;28;45475;-83
2024/01/18 16:05:59;;;;;;;1.15;1.00;;;22.10;26.00;;;;;;4988665;28;47499;-83
2024/01/18 16:08:25;;;;;;;1.20;1.10;;;22.00;26.00;;;;;;4985642;28;45623;-84
2024/01/18 16:10:51;;;;;;;1.05;0.95;;;22.00;26.00;;;;;;5001402;28;45512;-84
2024/01/18 16:13:17;;;;;;;1.30;1.10;;;22.00;25.90;;;;;;5019423;28;45183;-84
2024/01/18 16:15:43;;;;;;;1.10;1.00;;;22.00;26.00;;;;;;4994015;28;47393;-83
2024/01/18 16:18:09;;;;;;;1.48;1.20;;;22.00;26.00;;;;;;4989818;28;45260;-83
2024/01/18 16:20:35;;;;;;;1.17;1.00;;;22.00;26.00;;;;;;5000946;28;46250;-84
2024/01/18 16:23:02;;;;;;;1.33;1.23;;;22.00;26.00;;;;;;5004389;28;45146;-85
2024/01/18 16:25:29;;;;;;;1.60;1.25;;;22.00;26.00;;;;;;5014021;28;45446;-85
2024/01/18 16:27:55;;;;;;;1.50;0.98;;;22.00;25.90;;;;;;5019516;28;45421;-84
2024/01/18 16:30:20;;;;;;;1.27;1.15;;;22.00;26.00;;;;;;5012012;28;45480;-84
2024/01/18 16:32:46;;;;;;;1.67;1.37;;;22.00;26.00;;;;;;5001352;28;45869;-84
2024/01/18 16:35:12;;;;;;;1.40;1.30;;;21.90;25.90;;;;;;5002709;28;45851;-85
2024/01/18 16:37:37;;;;;;;1.73;1.30;;;21.90;26.00;;;;;;5008730;28;44927;-85
2024/01/18 16:40:06;;;;;;;1.45;1.20;;;21.90;25.90;;;;;;4993948;28;45695;-85
2024/01/18 16:42:31;;;;;;;1.37;1.27;;;21.90;26.00;;;;;;5011985;28;45375;-85
2024/01/18 16:44:57;;;;;;;1.52;1.15;;;21.90;26.00;;;;;;4994326;28;46009;-85